createdAt,value
2023-11-24T00:02:07.301Z,1.00
2023-11-24T00:04:34.671Z,1.43
2023-11-24T00:07:03.370Z,0.97
2023-11-24T00:09:30.775Z,1.00
2023-11-24T00:12:00.010Z,0.90
2023-11-24T00:14:26.913Z,1.20
2023-11-24T00:16:53.769Z,1.30
2023-11-24T00:19:20.801Z,1.00
2023-11-24T00:21:51.262Z,1.13
2023-11-24T00:24:18.192Z,0.90
2023-11-24T00:26:45.160Z,1.03
2023-11-24T00:29:12.707Z,0.90
2023-11-24T00:31:39.547Z,1.20
2023-11-24T00:34:09.420Z,1.03
2023-11-24T00:36:36.660Z,1.07
2023-11-24T00:39:05.461Z,1.17
2023-11-24T00:41:32.315Z,1.27
2023-11-24T00:44:03.316Z,1.03
2023-11-24T00:46:30.818Z,0.93
2023-11-24T00:49:00.613Z,1.17
2023-11-24T00:51:27.551Z,1.00
2023-11-24T00:53:54.692Z,0.90
2023-11-24T00:56:21.885Z,1.43
2023-11-24T00:58:49.924Z,0.90
2023-11-24T01:01:16.922Z,0.97
2023-11-24T01:03:43.787Z,1.47
2023-11-24T01:06:10.645Z,1.33
2023-11-24T01:08:37.495Z,1.50
2023-11-24T01:11:04.297Z,1.30
2023-11-24T01:13:34.339Z,1.20
2023-11-24T01:16:01.445Z,0.90
2023-11-24T01:18:29.260Z,1.43
2023-11-24T01:20:56.357Z,0.80
2023-11-24T01:23:23.481Z,1.00
2023-11-24T01:25:50.363Z,1.17
2023-11-24T01:28:17.229Z,1.03
2023-11-24T01:30:44.666Z,1.33
2023-11-24T01:33:11.640Z,0.93
2023-11-24T01:35:38.559Z,0.90
2023-11-24T01:38:05.449Z,1.10
2023-11-24T01:40:32.460Z,1.40
2023-11-24T01:42:59.335Z,1.20
2023-11-24T01:45:26.306Z,1.10
2023-11-24T01:47:54.229Z,1.00
2023-11-24T01:50:21.157Z,1.40
2023-11-24T01:52:49.863Z,1.20
2023-11-24T01:55:17.934Z,0.80
2023-11-24T01:57:45.564Z,0.97
2023-11-24T02:00:14.911Z,0.83
2023-11-24T02:02:42.947Z,1.10
2023-11-24T02:05:10.529Z,1.13
2023-11-24T02:07:38.055Z,1.30
2023-11-24T02:10:05.579Z,0.90
2023-11-24T02:12:32.507Z,1.10
2023-11-24T02:14:59.406Z,1.00
2023-11-24T02:17:26.714Z,1.00
2023-11-24T02:19:53.601Z,1.13
2023-11-24T02:22:20.484Z,1.33
2023-11-24T02:24:47.323Z,1.03
2023-11-24T02:27:14.857Z,1.40
2023-11-24T02:29:41.700Z,1.30
2023-11-24T02:32:09.512Z,1.10
2023-11-24T02:34:36.594Z,1.03
2023-11-24T02:37:03.996Z,1.37
2023-11-24T02:39:30.983Z,0.90
2023-11-24T02:41:57.768Z,1.40
2023-11-24T02:44:24.664Z,1.37
2023-11-24T02:46:51.541Z,1.50
2023-11-24T02:49:18.835Z,1.37
2023-11-24T02:51:45.655Z,1.27
2023-11-24T02:54:12.529Z,0.90
2023-11-24T02:56:39.379Z,1.50
2023-11-24T02:59:06.160Z,1.20
2023-11-24T03:01:33.347Z,0.90
2023-11-24T03:04:00.284Z,1.10
2023-11-24T03:06:28.587Z,1.10
2023-11-24T03:08:55.556Z,1.00
2023-11-24T03:11:26.468Z,1.23
2023-11-24T03:13:53.350Z,1.10
2023-11-24T03:16:20.150Z,0.80
2023-11-24T03:18:47.021Z,1.10
2023-11-24T03:21:13.868Z,1.13
2023-11-24T03:23:40.799Z,1.17
2023-11-24T03:26:11.033Z,1.10
2023-11-24T03:28:38.757Z,1.13
2023-11-24T03:31:06.462Z,0.97
2023-11-24T03:33:34.587Z,0.90
2023-11-24T03:36:01.467Z,1.00
2023-11-24T03:38:28.301Z,1.10
2023-11-24T03:40:57.369Z,0.97
2023-11-24T03:43:24.633Z,0.70
2023-11-24T03:45:51.449Z,1.10
2023-11-24T03:48:22.746Z,0.93
2023-11-24T03:50:50.858Z,1.10
2023-11-24T03:53:17.692Z,1.40
2023-11-24T03:55:44.800Z,1.10
2023-11-24T03:58:11.681Z,0.90
2023-11-24T04:00:38.580Z,0.87
2023-11-24T04:03:05.809Z,0.90
2023-11-24T04:05:32.930Z,0.80
2023-11-24T04:07:59.778Z,0.90
2023-11-24T04:10:26.622Z,1.30
2023-11-24T04:12:53.524Z,0.83
2023-11-24T04:15:20.772Z,0.90
2023-11-24T04:17:48.134Z,0.60
2023-11-24T04:20:15.790Z,0.60
2023-11-24T04:22:42.688Z,0.70
2023-11-24T04:25:11.773Z,0.87
2023-11-24T04:27:39.046Z,0.73
2023-11-24T04:30:07.841Z,0.77
2023-11-24T04:32:34.685Z,0.70
2023-11-24T04:35:01.635Z,0.63
2023-11-24T04:37:28.891Z,0.70
2023-11-24T04:39:57.153Z,0.50
2023-11-24T04:42:26.144Z,0.50
2023-11-24T04:44:55.121Z,0.70
2023-11-24T04:47:22.167Z,0.50
2023-11-24T04:49:49.123Z,0.90
2023-11-24T04:52:15.973Z,0.57
2023-11-24T04:54:42.828Z,0.50
2023-11-24T04:57:11.215Z,0.63
2023-11-24T04:59:41.847Z,0.40
2023-11-24T05:02:09.008Z,0.40
2023-11-24T05:04:37.966Z,0.40
2023-11-24T05:07:05.480Z,0.50
2023-11-24T05:09:32.577Z,0.50
2023-11-24T05:11:59.471Z,0.43
2023-11-24T05:14:26.608Z,0.33
2023-11-24T05:16:53.538Z,0.50
2023-11-24T05:19:20.899Z,0.30
2023-11-24T05:21:47.726Z,0.40
2023-11-24T05:24:14.552Z,0.60
2023-11-24T05:26:41.399Z,0.60
2023-11-24T05:29:08.208Z,0.60
2023-11-24T05:31:35.067Z,0.50
2023-11-24T05:34:02.224Z,0.60
2023-11-24T05:36:29.361Z,0.43
2023-11-24T05:38:57.372Z,0.60
2023-11-24T05:41:24.187Z,0.60
2023-11-24T05:43:51.523Z,0.60
2023-11-24T05:46:18.359Z,0.60
2023-11-24T05:48:45.241Z,0.80
2023-11-24T05:51:12.131Z,0.60
2023-11-24T05:53:38.907Z,0.70
2023-11-24T05:56:08.922Z,0.77
2023-11-24T05:58:36.280Z,0.67
2023-11-24T06:01:03.435Z,0.70
2023-11-24T06:03:31.526Z,0.87
2023-11-24T06:05:58.403Z,0.83
2023-11-24T06:08:25.227Z,0.80
2023-11-24T06:10:52.178Z,0.77
2023-11-24T06:13:18.989Z,0.70
2023-11-24T06:15:45.952Z,0.60
2023-11-24T06:18:12.978Z,0.70
2023-11-24T06:20:39.844Z,0.90
2023-11-24T06:23:06.677Z,0.70
2023-11-24T06:25:33.492Z,0.70
2023-11-24T06:28:00.323Z,1.10
2023-11-24T06:30:27.263Z,0.70
2023-11-24T06:32:54.170Z,0.67
2023-11-24T06:35:22.187Z,0.60
2023-11-24T06:37:49.602Z,0.60
2023-11-24T06:40:16.706Z,0.70
2023-11-24T06:42:43.975Z,0.90
2023-11-24T06:45:14.053Z,1.03
2023-11-24T06:47:42.019Z,0.60
2023-11-24T06:50:10.742Z,0.60
2023-11-24T06:52:38.150Z,0.87
2023-11-24T06:55:05.430Z,0.90
2023-11-24T06:57:32.800Z,1.23
2023-11-24T06:59:59.700Z,1.30
2023-11-24T07:02:26.590Z,0.80
2023-11-24T07:04:54.253Z,0.70
2023-11-24T07:07:22.289Z,0.70
2023-11-24T07:09:49.273Z,0.93
2023-11-24T07:12:19.461Z,0.90
2023-11-24T07:14:47.232Z,0.93
2023-11-24T07:17:14.057Z,1.20
2023-11-24T07:19:42.623Z,1.93
2023-11-24T07:22:09.609Z,2.30
2023-11-24T07:24:44.245Z,2.33
2023-11-24T07:27:12.151Z,2.00
2023-11-24T07:29:38.937Z,2.17
2023-11-24T07:32:05.957Z,2.30
2023-11-24T07:34:32.969Z,1.50
2023-11-24T07:37:03.343Z,2.03
2023-11-24T07:39:31.729Z,1.10
2023-11-24T07:42:00.028Z,1.70
2023-11-24T07:44:32.766Z,1.63
2023-11-24T07:47:00.130Z,0.97
2023-11-24T07:49:27.163Z,1.27
2023-11-24T07:51:54.405Z,1.27
2023-11-24T07:54:21.459Z,1.77
2023-11-24T07:56:48.420Z,1.10
2023-11-24T07:59:15.393Z,1.20
2023-11-24T08:01:42.592Z,1.60
2023-11-24T08:04:09.927Z,2.10
2023-11-24T08:06:36.936Z,2.27
2023-11-24T08:09:09.480Z,5.07
2023-11-24T08:11:36.482Z,2.40
2023-11-24T08:14:03.811Z,2.33
2023-11-24T08:16:30.856Z,3.30
2023-11-24T08:18:57.750Z,2.30
2023-11-24T08:21:24.745Z,2.23
2023-11-24T08:23:51.612Z,2.57
2023-11-24T08:26:19.462Z,2.00
2023-11-24T08:28:46.697Z,3.03
2023-11-24T08:31:22.014Z,2.40
2023-11-24T08:33:50.294Z,1.80
2023-11-24T08:36:17.397Z,2.00
2023-11-24T08:38:46.177Z,2.17
2023-11-24T08:41:30.382Z,2.03
2023-11-24T08:44:02.512Z,1.53
2023-11-24T08:46:30.031Z,1.90
2023-11-24T08:48:57.559Z,1.47
2023-11-24T08:51:24.427Z,2.00
2023-11-24T08:53:51.271Z,1.67
2023-11-24T08:56:18.090Z,1.73
2023-11-24T08:58:44.919Z,1.77
2023-11-24T09:01:14.614Z,1.60
2023-11-24T09:03:41.554Z,1.80
2023-11-24T09:06:08.614Z,1.47
2023-11-24T09:08:35.468Z,1.60
2023-11-24T09:11:02.916Z,1.50
2023-11-24T09:13:29.748Z,1.13
2023-11-24T09:15:56.665Z,1.30
2023-11-24T09:18:23.953Z,1.60
2023-11-24T09:20:50.933Z,2.90
2023-11-24T09:23:18.214Z,5.50
2023-11-24T09:25:45.142Z,8.77
2023-11-24T09:28:12.215Z,14.57
2023-11-24T09:30:39.890Z,14.33
2023-11-24T09:33:09.092Z,23.40
2023-11-24T09:35:36.251Z,20.43
2023-11-24T09:38:03.061Z,21.83
2023-11-24T09:40:32.133Z,23.77
2023-11-24T09:43:05.277Z,25.10
2023-11-24T09:45:32.657Z,22.60
2023-11-24T09:48:00.427Z,26.67
2023-11-24T09:50:28.425Z,33.47
2023-11-24T09:52:57.269Z,35.37
2023-11-24T09:55:30.498Z,32.03
2023-11-24T09:57:58.760Z,29.70
2023-11-24T10:00:27.763Z,26.57
2023-11-24T10:02:59.318Z,24.83
2023-11-24T10:05:27.654Z,21.27
2023-11-24T10:07:54.691Z,17.10
2023-11-24T10:10:27.332Z,15.13
2023-11-24T10:13:00.924Z,13.30
2023-11-24T10:15:28.003Z,10.70
2023-11-24T10:17:55.039Z,10.47
2023-11-24T10:20:24.133Z,8.40
2023-11-24T10:22:51.508Z,8.47
2023-11-24T10:25:22.605Z,6.70
2023-11-24T10:27:49.997Z,4.70
2023-11-24T10:30:19.906Z,3.93
2023-11-24T10:32:50.166Z,4.10
2023-11-24T10:35:17.137Z,4.67
2023-11-24T10:37:46.012Z,3.37
2023-11-24T10:40:16.832Z,3.83
2023-11-24T10:42:49.531Z,5.17
2023-11-24T10:45:21.012Z,5.90
2023-11-24T10:48:13.533Z,5.13
2023-11-24T10:50:43.259Z,6.80
2023-11-24T10:53:24.966Z,6.60
2023-11-24T10:55:54.367Z,7.03
2023-11-24T10:58:22.730Z,6.63
2023-11-24T11:00:49.897Z,6.00
2023-11-24T11:03:17.982Z,5.37
2023-11-24T11:05:50.670Z,3.70
2023-11-24T11:08:35.939Z,3.30
2023-11-24T11:11:02.859Z,4.50
2023-11-24T11:13:31.445Z,4.40
2023-11-24T11:15:58.341Z,5.13
2023-11-24T11:18:26.714Z,4.03
2023-11-24T11:20:53.846Z,4.00
2023-11-24T11:23:21.087Z,3.60
2023-11-24T11:25:52.063Z,3.97
2023-11-24T11:28:19.289Z,4.63
2023-11-24T11:30:50.164Z,4.33
2023-11-24T11:33:21.141Z,3.80
2023-11-24T11:35:50.270Z,4.73
2023-11-24T11:38:36.666Z,10.20
2023-11-24T11:41:06.098Z,14.27
2023-11-24T11:43:32.975Z,14.93
2023-11-24T11:46:01.265Z,16.70
2023-11-24T11:48:37.298Z,23.57
2023-11-24T11:51:05.664Z,22.97
2023-11-24T11:53:35.371Z,20.93
2023-11-24T11:56:12.097Z,18.43
2023-11-24T11:58:40.025Z,16.97
2023-11-24T12:01:08.183Z,13.23
2023-11-24T12:03:35.948Z,11.67
2023-11-24T12:06:07.206Z,10.60
2023-11-24T12:08:42.602Z,8.73
2023-11-24T12:11:09.921Z,7.77
2023-11-24T12:13:40.555Z,9.77
2023-11-24T12:16:08.225Z,8.57
2023-11-24T12:18:37.344Z,6.67
2023-11-24T12:21:04.473Z,6.83
2023-11-24T12:23:31.448Z,5.20
2023-11-24T12:25:58.315Z,4.93
2023-11-24T12:28:25.178Z,3.80
2023-11-24T12:30:51.997Z,3.73
2023-11-24T12:33:23.555Z,3.03
2023-11-24T12:35:52.068Z,2.13
2023-11-24T12:38:19.665Z,2.17
2023-11-24T12:40:46.910Z,1.87
2023-11-24T12:43:18.504Z,2.30
2023-11-24T12:45:49.502Z,1.50
2023-11-24T12:48:23.149Z,1.70
2023-11-24T12:50:51.129Z,1.67
2023-11-24T12:53:21.590Z,2.10
2023-11-24T12:55:48.607Z,2.10
2023-11-24T12:58:15.960Z,2.00
2023-11-24T13:00:46.819Z,3.07
2023-11-24T13:03:13.819Z,4.77
2023-11-24T13:05:40.693Z,3.67
2023-11-24T13:08:08.311Z,3.20
2023-11-24T13:10:37.249Z,4.40
2023-11-24T13:13:04.152Z,3.27
2023-11-24T13:15:31.068Z,2.37
2023-11-24T13:17:57.957Z,2.00
2023-11-24T13:20:30.205Z,2.30
2023-11-24T13:22:57.691Z,2.00
2023-11-24T13:25:28.208Z,1.73
2023-11-24T13:27:55.518Z,1.67
2023-11-24T13:30:23.449Z,1.30
2023-11-24T13:32:50.758Z,1.07
2023-11-24T13:35:17.844Z,1.03
2023-11-24T13:37:46.175Z,1.30
2023-11-24T13:40:20.707Z,1.20
2023-11-24T13:42:47.955Z,1.10
2023-11-24T13:45:14.955Z,0.90
2023-11-24T13:47:42.836Z,0.97
2023-11-24T13:50:10.672Z,1.00
2023-11-24T13:52:37.648Z,1.10
2023-11-24T13:55:07.701Z,0.93
2023-11-24T13:57:35.056Z,0.70
2023-11-24T14:00:02.030Z,1.07
2023-11-24T14:02:29.137Z,1.87
2023-11-24T14:04:56.075Z,3.50
2023-11-24T14:07:23.185Z,7.03
2023-11-24T14:09:50.267Z,10.07
2023-11-24T14:12:17.120Z,9.83
2023-11-24T14:14:44.777Z,17.40
2023-11-24T14:17:13.468Z,21.33
2023-11-24T14:19:40.365Z,22.17
2023-11-24T14:22:08.769Z,22.83
2023-11-24T14:24:35.754Z,33.93
2023-11-24T14:27:02.659Z,34.43
2023-11-24T14:29:32.630Z,32.70
2023-11-24T14:31:59.586Z,23.03
2023-11-24T14:34:26.408Z,16.37
2023-11-24T14:36:53.282Z,14.13
2023-11-24T14:39:33.138Z,14.57
2023-11-24T14:42:00.700Z,17.47
2023-11-24T14:44:27.739Z,17.47
2023-11-24T14:46:54.722Z,18.60
2023-11-24T14:49:21.953Z,16.70
2023-11-24T14:51:50.043Z,15.27
2023-11-24T14:54:18.102Z,15.80
2023-11-24T14:56:46.825Z,18.30
2023-11-24T14:59:13.900Z,35.13
2023-11-24T15:01:44.336Z,49.80
2023-11-24T15:04:18.829Z,53.83
2023-11-24T15:06:51.760Z,52.30
2023-11-24T15:09:20.161Z,48.50
2023-11-24T15:11:49.784Z,42.50
2023-11-24T15:14:16.673Z,35.77
2023-11-24T15:17:13.217Z,41.33
2023-11-24T15:19:40.695Z,49.30
2023-11-24T15:22:10.944Z,47.47
2023-11-24T15:24:40.021Z,45.40
2023-11-24T15:27:09.216Z,37.20
2023-11-24T15:29:38.861Z,26.87
2023-11-24T15:32:09.101Z,20.83
2023-11-24T15:34:36.553Z,18.93
2023-11-24T15:37:05.316Z,13.97
2023-11-24T15:39:42.732Z,12.40
2023-11-24T15:42:10.474Z,11.07
2023-11-24T15:44:40.530Z,8.50
2023-11-24T15:47:12.468Z,6.70
2023-11-24T15:49:43.299Z,7.27
2023-11-24T15:52:13.959Z,8.57
2023-11-24T15:54:42.011Z,7.93
2023-11-24T15:57:10.205Z,6.53
2023-11-24T15:59:43.618Z,6.13
2023-11-24T16:02:13.642Z,6.10
2023-11-24T16:04:44.139Z,6.10
2023-11-24T16:07:11.696Z,4.10
2023-11-24T16:09:39.028Z,3.40
2023-11-24T16:12:13.844Z,3.27
2023-11-24T16:14:41.230Z,3.53
2023-11-24T16:17:11.192Z,2.97
2023-11-24T16:19:38.342Z,3.60
2023-11-24T16:22:06.598Z,4.13
2023-11-24T16:24:33.942Z,2.63
2023-11-24T16:27:03.971Z,2.53
2023-11-24T16:29:30.970Z,2.50
2023-11-24T16:32:00.863Z,2.20
2023-11-24T16:34:28.380Z,2.03
2023-11-24T16:36:59.392Z,2.57
2023-11-24T16:39:29.079Z,2.50
2023-11-24T16:41:56.454Z,1.90
2023-11-24T16:44:24.207Z,1.80
2023-11-24T16:46:59.376Z,1.50
2023-11-24T16:49:27.014Z,3.77
2023-11-24T16:51:54.320Z,5.03
2023-11-24T16:54:21.412Z,4.20
2023-11-24T16:56:48.531Z,3.33
2023-11-24T16:59:19.432Z,2.83
2023-11-24T17:01:46.366Z,2.30
2023-11-24T17:04:13.823Z,2.33
2023-11-24T17:06:40.779Z,2.93
2023-11-24T17:09:12.831Z,3.60
2023-11-24T17:11:43.204Z,5.30
2023-11-24T17:14:10.119Z,3.10
2023-11-24T17:16:40.517Z,3.63
2023-11-24T17:19:07.463Z,2.93
2023-11-24T17:21:34.322Z,2.80
2023-11-24T17:24:01.172Z,3.20
2023-11-24T17:26:28.996Z,9.60
2023-11-24T17:28:57.816Z,32.30
2023-11-24T17:31:25.677Z,35.00
2023-11-24T17:33:53.469Z,28.13
2023-11-24T17:36:21.363Z,17.87
2023-11-24T17:38:49.570Z,14.47
2023-11-24T17:41:16.439Z,11.77
2023-11-24T17:43:43.658Z,10.87
2023-11-24T17:46:10.575Z,10.23
2023-11-24T17:48:37.471Z,9.40
2023-11-24T17:51:04.772Z,9.80
2023-11-24T17:53:31.606Z,8.37
2023-11-24T17:56:02.266Z,5.43
2023-11-24T17:58:29.390Z,5.33
2023-11-24T18:00:59.138Z,4.23
2023-11-24T18:03:26.093Z,4.43
2023-11-24T18:05:52.994Z,3.77
2023-11-24T18:08:23.633Z,3.63
2023-11-24T18:10:50.832Z,6.00
2023-11-24T18:13:18.410Z,11.13
2023-11-24T18:15:45.443Z,8.90
2023-11-24T18:18:13.031Z,7.63
2023-11-24T18:20:41.430Z,5.27
2023-11-24T18:23:08.402Z,5.80
2023-11-24T18:25:39.756Z,5.37
2023-11-24T18:28:10.372Z,6.60
2023-11-24T18:30:38.785Z,5.80
2023-11-24T18:33:11.523Z,5.30
2023-11-24T18:35:39.770Z,4.93
2023-11-24T18:38:06.690Z,4.23
2023-11-24T18:40:33.598Z,5.13
2023-11-24T18:43:00.408Z,4.20
2023-11-24T18:45:27.266Z,3.73
2023-11-24T18:47:54.180Z,3.97
2023-11-24T18:50:21.505Z,3.93
2023-11-24T18:52:48.377Z,4.07
2023-11-24T18:55:15.375Z,4.87
2023-11-24T18:57:46.890Z,6.47
2023-11-24T19:00:19.657Z,7.47
2023-11-24T19:02:48.069Z,8.77
2023-11-24T19:05:14.976Z,8.03
2023-11-24T19:07:44.935Z,9.00
2023-11-24T19:10:12.071Z,7.57
2023-11-24T19:12:39.387Z,7.47
2023-11-24T19:15:11.724Z,7.33
2023-11-24T19:17:39.985Z,6.87
2023-11-24T19:20:08.847Z,6.50
2023-11-24T19:22:36.546Z,6.33
2023-11-24T19:25:03.728Z,6.10
2023-11-24T19:27:30.573Z,5.07
2023-11-24T19:29:57.505Z,4.60
2023-11-24T19:32:26.008Z,5.50
2023-11-24T19:34:54.099Z,4.77
2023-11-24T19:37:21.035Z,5.00
2023-11-24T19:39:49.533Z,4.47
2023-11-24T19:42:19.013Z,4.43
2023-11-24T19:44:48.105Z,4.03
2023-11-24T19:47:15.083Z,4.00
2023-11-24T19:49:42.226Z,3.70
2023-11-24T19:52:10.678Z,3.90
2023-11-24T19:54:38.981Z,4.27
2023-11-24T19:57:06.100Z,3.30
2023-11-24T19:59:32.957Z,3.07
2023-11-24T20:02:00.212Z,4.10
2023-11-24T20:04:28.980Z,3.40
2023-11-24T20:06:55.886Z,3.03
2023-11-24T20:09:23.754Z,2.87
2023-11-24T20:11:52.880Z,3.17
2023-11-24T20:14:19.758Z,3.00
2023-11-24T20:16:51.412Z,3.10
2023-11-24T20:19:18.668Z,2.80
2023-11-24T20:21:45.476Z,3.33
2023-11-24T20:24:12.282Z,4.87
2023-11-24T20:26:41.330Z,3.27
2023-11-24T20:29:09.109Z,3.17
2023-11-24T20:31:36.268Z,3.33
2023-11-24T20:34:03.327Z,3.70
2023-11-24T20:36:30.186Z,4.03
2023-11-24T20:38:58.776Z,4.43
2023-11-24T20:41:25.741Z,4.07
2023-11-24T20:43:55.141Z,4.03
2023-11-24T20:46:22.260Z,4.63
2023-11-24T20:48:49.219Z,3.50
2023-11-24T20:51:16.874Z,3.73
2023-11-24T20:53:43.797Z,4.43
2023-11-24T20:56:11.871Z,4.33
2023-11-24T20:58:39.466Z,3.63
2023-11-24T21:01:06.934Z,3.40
2023-11-24T21:03:33.950Z,3.77
2023-11-24T21:06:00.919Z,3.97
2023-11-24T21:08:28.324Z,3.57
2023-11-24T21:10:55.580Z,3.47
2023-11-24T21:13:23.647Z,3.43
2023-11-24T21:15:50.953Z,3.50
2023-11-24T21:18:18.034Z,3.43
2023-11-24T21:20:44.988Z,3.00
2023-11-24T21:23:13.246Z,3.90
2023-11-24T21:25:40.463Z,3.00
2023-11-24T21:28:09.150Z,2.57
2023-11-24T21:30:36.045Z,2.83
2023-11-24T21:33:03.151Z,3.00
2023-11-24T21:35:32.229Z,2.70
2023-11-24T21:37:59.305Z,2.30
2023-11-24T21:40:26.342Z,3.47
2023-11-24T21:42:53.376Z,2.67
2023-11-24T21:45:20.229Z,3.30
2023-11-24T21:47:47.404Z,2.57
2023-11-24T21:50:14.875Z,3.60
2023-11-24T21:52:42.261Z,2.70
2023-11-24T21:55:10.873Z,2.60
2023-11-24T21:57:37.836Z,2.47
2023-11-24T22:00:08.392Z,2.67
2023-11-24T22:02:40.725Z,2.50
2023-11-24T22:05:10.861Z,2.63
2023-11-24T22:07:38.554Z,2.30
2023-11-24T22:10:06.643Z,2.50
2023-11-24T22:12:37.224Z,2.37
2023-11-24T22:15:05.412Z,2.33
2023-11-24T22:17:34.104Z,2.33
2023-11-24T22:20:07.780Z,2.10
2023-11-24T22:22:34.890Z,2.00
2023-11-24T22:25:01.887Z,2.60
2023-11-24T22:27:28.778Z,2.20
2023-11-24T22:30:03.668Z,2.57
2023-11-24T22:32:33.422Z,2.30
2023-11-24T22:35:00.863Z,2.77
2023-11-24T22:37:28.374Z,2.83
2023-11-24T22:39:55.241Z,2.63
2023-11-24T22:42:23.398Z,2.40
2023-11-24T22:44:51.520Z,2.93
2023-11-24T22:47:19.216Z,2.60
2023-11-24T22:49:46.460Z,3.13
2023-11-24T22:52:13.315Z,2.47
2023-11-24T22:54:40.569Z,2.87
2023-11-24T22:57:08.158Z,3.37
2023-11-24T22:59:34.982Z,2.47
2023-11-24T23:02:01.947Z,2.83
2023-11-24T23:04:28.900Z,2.60
2023-11-24T23:06:55.818Z,3.10
2023-11-24T23:09:23.029Z,2.80
2023-11-24T23:11:50.292Z,2.43
2023-11-24T23:14:17.234Z,2.67
2023-11-24T23:16:45.471Z,2.57
2023-11-24T23:19:13.234Z,2.70
2023-11-24T23:21:42.208Z,2.83
2023-11-24T23:24:12.202Z,2.90
2023-11-24T23:26:39.858Z,2.93
2023-11-24T23:29:08.098Z,4.13
2023-11-24T23:31:35.419Z,2.57
2023-11-24T23:34:02.800Z,2.27
2023-11-24T23:36:29.845Z,2.67
2023-11-24T23:38:56.767Z,2.90
2023-11-24T23:41:23.984Z,2.90
2023-11-24T23:43:50.974Z,2.40
2023-11-24T23:46:18.067Z,2.40
2023-11-24T23:48:44.991Z,2.60
2023-11-24T23:51:12.585Z,2.70
2023-11-24T23:53:41.021Z,2.47
2023-11-24T23:56:08.517Z,3.03
2023-11-24T23:58:37.570Z,2.70
